createdAt,value
2023-05-17T00:00:35.108Z,100619.81
2023-05-17T00:03:02.217Z,100623.22
2023-05-17T00:05:29.590Z,100605.66
2023-05-17T00:07:56.832Z,100617.03
2023-05-17T00:10:23.924Z,100601.16
2023-05-17T00:12:51.090Z,100602.00
2023-05-17T00:15:18.226Z,100606.38
2023-05-17T00:17:45.306Z,100625.63
2023-05-17T00:20:12.736Z,100629.09
2023-05-17T00:22:41.114Z,100632.59
2023-05-17T00:25:08.415Z,100630.78
2023-05-17T00:27:35.450Z,100631.59
2023-05-17T00:30:02.652Z,100621.09
2023-05-17T00:32:32.435Z,100627.13
2023-05-17T00:34:59.574Z,100644.63
2023-05-17T00:37:26.683Z,100648.09
2023-05-17T00:39:54.248Z,100585.75
2023-05-17T00:42:21.289Z,100586.63
2023-05-17T00:44:48.752Z,100638.31
2023-05-17T00:47:16.040Z,100653.19
2023-05-17T00:49:43.352Z,100645.34
2023-05-17T00:52:10.536Z,100651.38
2023-05-17T00:54:37.611Z,100645.25
2023-05-17T00:57:05.934Z,100650.50
2023-05-17T00:59:34.848Z,100623.19
2023-05-17T01:02:04.137Z,100603.00
2023-05-17T01:04:31.532Z,100659.03
2023-05-17T01:07:00.479Z,100660.81
2023-05-17T01:09:27.613Z,100652.03
2023-05-17T01:12:06.523Z,100666.06
2023-05-17T01:15:11.259Z,100661.75
2023-05-17T01:18:00.344Z,100650.19
2023-05-17T01:20:36.502Z,100658.97
2023-05-17T01:23:40.605Z,100642.34
2023-05-17T01:26:19.207Z,100661.44
2023-05-17T01:28:49.774Z,100633.34
2023-05-17T01:31:18.727Z,100663.97
2023-05-17T01:33:46.660Z,100669.09
2023-05-17T01:36:13.778Z,100676.13
2023-05-17T01:38:41.951Z,100675.22
2023-05-17T01:41:42.548Z,100676.16
2023-05-17T01:44:33.204Z,100676.97
2023-05-17T01:47:12.938Z,100664.63
2023-05-17T01:49:41.918Z,100609.34
2023-05-17T01:52:17.029Z,100679.50
2023-05-17T01:54:47.549Z,100679.47
2023-05-17T01:57:15.241Z,100623.19
2023-05-17T01:59:44.354Z,100680.28
2023-05-17T02:02:11.444Z,100682.88
2023-05-17T02:04:38.534Z,100682.88
2023-05-17T02:07:05.693Z,100687.22
2023-05-17T02:09:32.748Z,100684.63
2023-05-17T02:11:59.878Z,100684.59
2023-05-17T02:14:27.078Z,100676.72
2023-05-17T02:16:54.487Z,100683.69
2023-05-17T02:19:22.127Z,100676.59
2023-05-17T02:21:49.588Z,100688.00
2023-05-17T02:24:17.985Z,100693.22
2023-05-17T02:26:45.992Z,100684.34
2023-05-17T02:29:13.189Z,100686.25
2023-05-17T02:31:40.601Z,100684.50
2023-05-17T02:34:07.655Z,100693.31
2023-05-17T02:36:35.078Z,100696.81
2023-05-17T02:39:02.192Z,100689.81
2023-05-17T02:41:29.277Z,100703.03
2023-05-17T02:43:58.341Z,100657.41
2023-05-17T02:46:27.304Z,100701.19
2023-05-17T02:48:54.477Z,100678.34
2023-05-17T02:51:21.724Z,100705.59
2023-05-17T02:53:48.967Z,100712.59
2023-05-17T02:56:16.054Z,100707.47
2023-05-17T02:58:44.881Z,100645.19
2023-05-17T03:01:12.096Z,100709.31
2023-05-17T03:03:39.537Z,100716.38
2023-05-17T03:06:07.180Z,100650.69
2023-05-17T03:08:35.151Z,100710.38
2023-05-17T03:11:04.041Z,100717.41
2023-05-17T03:13:31.657Z,100721.84
2023-05-17T03:15:58.758Z,100720.16
2023-05-17T03:18:28.802Z,100715.03
2023-05-17T03:20:56.012Z,100706.31
2023-05-17T03:23:23.444Z,100696.75
2023-05-17T03:25:59.186Z,100715.22
2023-05-17T03:28:28.147Z,100712.66
2023-05-17T03:30:58.111Z,100715.38
2023-05-17T03:33:27.769Z,100714.53
2023-05-17T03:35:54.883Z,100716.41
2023-05-17T03:38:22.006Z,100720.78
2023-05-17T03:40:52.042Z,100724.41
2023-05-17T03:43:19.461Z,100719.19
2023-05-17T03:45:47.722Z,100702.53
2023-05-17T03:48:17.649Z,100733.22
2023-05-17T03:50:45.250Z,100719.28
2023-05-17T03:53:12.943Z,100729.00
2023-05-17T03:55:40.123Z,100724.69
2023-05-17T03:58:10.371Z,100732.63
2023-05-17T04:00:37.603Z,100716.09
2023-05-17T04:03:13.031Z,100729.34
2023-05-17T04:05:41.561Z,100719.81
2023-05-17T04:08:09.583Z,100730.41
2023-05-17T04:10:36.668Z,100734.00
2023-05-17T04:13:04.705Z,100746.34
2023-05-17T04:15:32.195Z,100729.81
2023-05-17T04:18:03.373Z,100739.56
2023-05-17T04:20:31.137Z,100749.31
2023-05-17T04:22:58.360Z,100745.91
2023-05-17T04:25:29.124Z,100732.78
2023-05-17T04:27:56.910Z,100743.34
2023-05-17T04:30:24.349Z,100754.69
2023-05-17T04:32:51.626Z,100749.50
2023-05-17T04:35:19.172Z,100732.88
2023-05-17T04:37:49.686Z,100756.56
2023-05-17T04:40:21.417Z,100746.94
2023-05-17T04:42:49.571Z,100747.84
2023-05-17T04:45:17.960Z,100663.78
2023-05-17T04:47:45.836Z,100745.25
2023-05-17T04:50:15.344Z,100739.13
2023-05-17T04:52:42.717Z,100739.16
2023-05-17T04:55:10.506Z,100748.78
2023-05-17T04:57:38.651Z,100732.13
2023-05-17T05:00:08.959Z,100725.13
2023-05-17T05:02:38.266Z,100726.00
2023-05-17T05:05:07.061Z,100744.38
2023-05-17T05:07:35.748Z,100731.22
2023-05-17T05:10:04.326Z,100743.47
2023-05-17T05:12:32.096Z,100740.78
2023-05-17T05:15:01.204Z,100746.94
2023-05-17T05:17:33.945Z,100739.03
2023-05-17T05:20:01.305Z,100746.88
2023-05-17T05:22:28.619Z,100742.41
2023-05-17T05:24:56.782Z,100750.28
2023-05-17T05:27:23.891Z,100744.09
2023-05-17T05:29:51.558Z,100744.00
2023-05-17T05:32:19.159Z,100750.06
2023-05-17T05:34:49.261Z,100746.47
2023-05-17T05:37:18.591Z,100745.53
2023-05-17T05:39:46.773Z,100747.97
2023-05-17T05:42:13.937Z,100698.88
2023-05-17T05:44:40.990Z,100746.88
2023-05-17T05:47:09.319Z,100740.69
2023-05-17T05:49:36.766Z,100736.22
2023-05-17T05:52:04.037Z,100747.47
2023-05-17T05:54:34.646Z,100749.97
2023-05-17T05:57:01.711Z,100748.19
2023-05-17T05:59:28.861Z,100748.03
2023-05-17T06:01:58.738Z,100731.31
2023-05-17T06:04:36.380Z,100748.75
2023-05-17T06:07:11.607Z,100753.84
2023-05-17T06:09:38.676Z,100746.75
2023-05-17T06:12:05.880Z,100758.03
2023-05-17T06:14:32.969Z,100759.72
2023-05-17T06:17:00.092Z,100754.31
2023-05-17T06:19:27.265Z,100753.31
2023-05-17T06:21:54.417Z,100721.75
2023-05-17T06:24:21.580Z,100759.06
2023-05-17T06:26:48.861Z,100759.53
2023-05-17T06:29:15.940Z,100724.19
2023-05-17T06:31:43.153Z,100754.16
2023-05-17T06:34:12.869Z,100738.94
2023-05-17T06:36:40.737Z,100745.72
2023-05-17T06:39:08.085Z,100754.03
2023-05-17T06:41:35.165Z,100753.69
2023-05-17T06:44:02.170Z,100751.00
2023-05-17T06:46:29.300Z,100748.25
2023-05-17T06:48:56.475Z,100752.00
2023-05-17T06:51:23.906Z,100754.66
2023-05-17T06:53:50.999Z,100755.44
2023-05-17T06:56:18.114Z,100759.81
2023-05-17T06:58:45.133Z,100753.56
2023-05-17T07:01:13.272Z,100750.81
2023-05-17T07:03:40.472Z,100748.09
2023-05-17T07:06:07.910Z,100759.56
2023-05-17T07:08:37.784Z,100735.97
2023-05-17T07:11:05.410Z,100742.00
2023-05-17T07:13:33.280Z,100744.63
2023-05-17T07:16:00.828Z,100753.44
2023-05-17T07:18:28.029Z,100751.56
2023-05-17T07:20:55.172Z,100758.50
2023-05-17T07:23:22.500Z,100753.22
2023-05-17T07:25:49.638Z,100751.56
2023-05-17T07:28:17.124Z,100728.88
2023-05-17T07:30:44.259Z,100741.75
2023-05-17T07:33:11.632Z,100739.91
2023-05-17T07:35:41.704Z,100735.34
2023-05-17T07:38:10.621Z,100718.66
2023-05-17T07:40:37.795Z,100726.56
2023-05-17T07:43:04.852Z,100736.91
2023-05-17T07:45:32.045Z,100735.97
2023-05-17T07:47:59.542Z,100725.50
2023-05-17T07:50:26.782Z,100735.03
2023-05-17T07:52:54.044Z,100742.94
2023-05-17T07:55:21.487Z,100733.03
2023-05-17T07:57:48.586Z,100737.22
2023-05-17T08:00:19.436Z,100733.53
2023-05-17T08:02:46.771Z,100730.13
2023-05-17T08:05:13.944Z,100728.13
2023-05-17T08:07:41.143Z,100712.22
2023-05-17T08:10:08.559Z,100713.81
2023-05-17T08:12:35.640Z,100725.78
2023-05-17T08:15:02.910Z,100724.81
2023-05-17T08:17:33.507Z,100725.53
2023-05-17T08:20:00.670Z,100729.75
2023-05-17T08:22:27.925Z,100720.75
2023-05-17T08:24:54.965Z,100716.41
2023-05-17T08:27:22.056Z,100707.47
2023-05-17T08:29:49.152Z,100704.81
2023-05-17T08:32:16.166Z,100668.06
2023-05-17T08:34:43.263Z,100720.53
2023-05-17T08:37:10.409Z,100690.91
2023-05-17T08:39:37.496Z,100720.47
2023-05-17T08:42:08.670Z,100710.72
2023-05-17T08:44:36.635Z,100711.59
2023-05-17T08:47:04.271Z,100706.28
2023-05-17T08:49:34.708Z,100672.28
2023-05-17T08:52:09.877Z,100713.84
2023-05-17T08:54:37.743Z,100708.25
2023-05-17T08:57:06.908Z,100709.00
2023-05-17T08:59:35.310Z,100708.78
2023-05-17T09:02:03.067Z,100715.66
2023-05-17T09:04:33.427Z,100712.19
2023-05-17T09:07:00.619Z,100701.78
2023-05-17T09:09:28.150Z,100714.72
2023-05-17T09:11:55.358Z,100709.28
2023-05-17T09:14:22.525Z,100704.69
2023-05-17T09:16:57.487Z,100709.72
2023-05-17T09:19:24.760Z,100716.81
2023-05-17T09:21:52.259Z,100710.50
2023-05-17T09:24:28.525Z,100712.13
2023-05-17T09:27:02.307Z,100702.78
2023-05-17T09:29:34.233Z,100680.03
2023-05-17T09:32:18.509Z,100697.22
2023-05-17T09:34:50.166Z,100688.38
2023-05-17T09:37:19.116Z,100693.69
2023-05-17T09:39:48.044Z,100690.69
2023-05-17T09:42:17.036Z,100682.25
2023-05-17T09:44:57.788Z,100680.84
2023-05-17T09:47:29.194Z,100677.34
2023-05-17T09:49:58.347Z,100632.47
2023-05-17T09:52:25.502Z,100674.94
2023-05-17T09:54:57.930Z,100676.81
2023-05-17T09:57:29.463Z,100678.72
2023-05-17T09:59:58.223Z,100602.88
2023-05-17T10:02:31.299Z,100666.72
2023-05-17T10:04:58.659Z,100675.72
2023-05-17T10:07:27.158Z,100667.00
2023-05-17T10:09:56.163Z,100665.19
2023-05-17T10:12:25.047Z,100672.31
2023-05-17T10:14:56.086Z,100669.47
2023-05-17T10:17:24.069Z,100665.22
2023-05-17T10:19:51.860Z,100656.31
2023-05-17T10:22:23.730Z,100662.28
2023-05-17T10:24:51.984Z,100657.72
2023-05-17T10:27:20.993Z,100665.56
2023-05-17T10:29:50.454Z,100644.44
2023-05-17T10:32:23.336Z,100658.97
2023-05-17T10:35:01.541Z,100648.69
2023-05-17T10:37:37.286Z,100663.50
2023-05-17T10:40:05.051Z,100657.31
2023-05-17T10:42:32.746Z,100649.34
2023-05-17T10:45:01.907Z,100646.16
2023-05-17T10:47:33.240Z,100655.41
2023-05-17T10:50:00.638Z,100645.88
2023-05-17T10:52:28.035Z,100625.69
2023-05-17T10:54:56.584Z,100617.78
2023-05-17T10:57:50.058Z,100636.78
2023-05-17T11:00:22.224Z,100628.84
2023-05-17T11:02:50.897Z,100635.53
2023-05-17T11:05:26.016Z,100629.63
2023-05-17T11:08:11.929Z,100626.69
2023-05-17T11:10:39.173Z,100634.47
2023-05-17T11:13:23.413Z,100633.41
2023-05-17T11:16:08.100Z,100621.81
2023-05-17T11:18:52.845Z,100621.25
2023-05-17T11:21:22.556Z,100602.03
2023-05-17T11:23:56.762Z,100623.63
2023-05-17T11:26:32.066Z,100627.81
2023-05-17T11:29:12.457Z,100616.22
2023-05-17T11:31:51.857Z,100624.34
2023-05-17T11:34:19.527Z,100595.06
2023-05-17T11:36:54.652Z,100606.00
2023-05-17T11:39:23.918Z,100603.03
2023-05-17T11:41:58.090Z,100614.97
2023-05-17T11:44:32.841Z,100609.44
2023-05-17T11:47:04.733Z,100487.84
2023-05-17T11:49:36.672Z,100585.13
2023-05-17T11:52:08.237Z,100603.41
2023-05-17T11:54:35.648Z,100587.72
2023-05-17T11:57:04.307Z,100602.56
2023-05-17T11:59:38.785Z,100595.44
2023-05-17T12:02:06.346Z,100567.00
2023-05-17T12:04:38.064Z,100590.47
2023-05-17T12:07:09.060Z,100572.59
2023-05-17T12:09:37.583Z,100577.97
2023-05-17T12:12:05.971Z,100564.78
2023-05-17T12:14:33.182Z,100543.59
2023-05-17T12:17:02.754Z,100570.69
2023-05-17T12:19:30.573Z,100571.63
2023-05-17T12:22:14.803Z,100574.16
2023-05-17T12:24:43.197Z,100542.31
2023-05-17T12:27:11.164Z,100561.63
2023-05-17T12:29:39.326Z,100552.94
2023-05-17T12:32:08.897Z,100566.31
2023-05-17T12:34:36.475Z,100543.97
2023-05-17T12:37:04.376Z,100556.81
2023-05-17T12:39:31.864Z,100554.16
2023-05-17T12:41:59.446Z,100534.69
2023-05-17T12:44:26.589Z,100552.09
2023-05-17T12:46:56.406Z,100544.03
2023-05-17T12:49:23.801Z,100539.56
2023-05-17T12:51:50.878Z,100525.78
2023-05-17T12:54:28.640Z,100532.09
2023-05-17T12:56:57.116Z,100537.09
2023-05-17T12:59:29.284Z,100533.56
2023-05-17T13:01:58.302Z,100530.78
2023-05-17T13:04:33.109Z,100524.63
2023-05-17T13:07:02.758Z,100535.09
2023-05-17T13:09:32.280Z,100521.91
2023-05-17T13:12:07.309Z,100510.47
2023-05-17T13:14:45.796Z,100522.50
2023-05-17T13:17:24.790Z,100525.47
2023-05-17T13:19:52.637Z,100522.38
2023-05-17T13:22:19.859Z,100441.56
2023-05-17T13:24:46.970Z,100507.09
2023-05-17T13:27:14.107Z,100501.03
2023-05-17T13:29:42.958Z,100515.84
2023-05-17T13:32:12.064Z,100516.56
2023-05-17T13:34:40.668Z,100514.06
2023-05-17T13:37:11.109Z,100497.34
2023-05-17T13:39:41.368Z,100513.00
2023-05-17T13:42:09.801Z,100508.53
2023-05-17T13:44:38.496Z,100500.66
2023-05-17T13:47:06.433Z,100507.47
2023-05-17T13:49:33.574Z,100502.25
2023-05-17T13:52:00.981Z,100505.78
2023-05-17T13:54:28.377Z,100504.91
2023-05-17T13:56:57.622Z,100492.88
2023-05-17T13:59:25.056Z,100502.78
2023-05-17T14:01:52.793Z,100487.97
2023-05-17T14:04:22.759Z,100496.47
2023-05-17T14:06:51.742Z,100499.19
2023-05-17T14:09:20.517Z,100488.94
2023-05-17T14:11:47.675Z,100497.78
2023-05-17T14:14:14.828Z,100493.59
2023-05-17T14:16:42.020Z,100474.59
2023-05-17T14:19:09.266Z,100476.97
2023-05-17T14:21:36.636Z,100487.53
2023-05-17T14:24:03.929Z,100486.66
2023-05-17T14:26:31.042Z,100471.97
2023-05-17T14:28:58.143Z,100486.66
2023-05-17T14:31:25.225Z,100485.84
2023-05-17T14:33:52.355Z,100484.09
2023-05-17T14:36:19.455Z,100477.22
2023-05-17T14:38:46.521Z,100477.09
2023-05-17T14:41:13.632Z,100478.94
2023-05-17T14:43:40.687Z,100474.59
2023-05-17T14:46:07.795Z,100441.63
2023-05-17T14:48:34.972Z,100476.50
2023-05-17T14:51:03.663Z,100460.84
2023-05-17T14:53:31.003Z,100467.06
2023-05-17T14:55:59.215Z,100458.50
2023-05-17T14:58:26.850Z,100468.16
2023-05-17T15:01:05.058Z,100470.69
2023-05-17T15:03:33.634Z,100455.78
2023-05-17T15:06:02.597Z,100467.25
2023-05-17T15:08:31.729Z,100468.19
2023-05-17T15:10:59.055Z,100459.66
2023-05-17T15:13:26.689Z,100467.38
2023-05-17T15:15:54.059Z,100472.88
2023-05-17T15:18:21.337Z,100478.31
2023-05-17T15:20:48.694Z,100459.97
2023-05-17T15:23:16.239Z,100473.19
2023-05-17T15:25:43.353Z,100482.06
2023-05-17T15:28:10.475Z,100445.06
2023-05-17T15:30:37.522Z,100481.59
2023-05-17T15:33:04.847Z,100467.03
2023-05-17T15:35:32.124Z,100461.94
2023-05-17T15:37:59.896Z,100469.00
2023-05-17T15:40:27.748Z,100461.25
2023-05-17T15:42:54.825Z,100453.47
2023-05-17T15:45:21.977Z,100463.00
2023-05-17T15:47:49.610Z,100467.47
2023-05-17T15:50:17.056Z,100456.25
2023-05-17T15:52:44.233Z,100467.66
2023-05-17T15:55:11.421Z,100470.41
2023-05-17T15:57:38.551Z,100446.91
2023-05-17T16:00:06.318Z,100472.50
2023-05-17T16:02:34.186Z,100433.53
2023-05-17T16:05:03.505Z,100469.22
2023-05-17T16:07:31.521Z,100471.16
2023-05-17T16:09:58.642Z,100459.06
2023-05-17T16:12:25.783Z,100473.88
2023-05-17T16:14:52.820Z,100475.78
2023-05-17T16:17:19.907Z,100474.03
2023-05-17T16:19:46.994Z,100476.00
2023-05-17T16:22:14.246Z,100482.19
2023-05-17T16:24:42.024Z,100477.94
2023-05-17T16:27:09.121Z,100471.06
2023-05-17T16:29:40.296Z,100481.66
2023-05-17T16:32:08.497Z,100473.00
2023-05-17T16:34:36.224Z,100459.16
2023-05-17T16:37:04.944Z,100461.03
2023-05-17T16:39:33.082Z,100478.59
2023-05-17T16:42:00.263Z,100463.94
2023-05-17T16:44:27.371Z,100470.88
2023-05-17T16:46:54.434Z,100476.16
2023-05-17T16:49:21.523Z,100471.94
2023-05-17T16:51:50.668Z,100467.69
2023-05-17T16:54:18.173Z,100471.25
2023-05-17T16:56:45.317Z,100471.38
2023-05-17T16:59:12.365Z,100455.03
2023-05-17T17:01:39.478Z,100475.22
2023-05-17T17:04:06.599Z,100472.66
2023-05-17T17:06:34.051Z,100464.13
2023-05-17T17:09:01.861Z,100470.34
2023-05-17T17:11:28.988Z,100481.94
2023-05-17T17:13:56.030Z,100480.38
2023-05-17T17:16:23.183Z,100478.69
2023-05-17T17:18:50.357Z,100486.75
2023-05-17T17:21:17.692Z,100466.78
2023-05-17T17:23:44.956Z,100483.50
2023-05-17T17:26:12.132Z,100495.94
2023-05-17T17:28:39.355Z,100435.94
2023-05-17T17:31:06.834Z,100472.59
2023-05-17T17:33:34.610Z,100474.38
2023-05-17T17:36:02.873Z,100485.81
2023-05-17T17:38:29.953Z,100490.44
2023-05-17T17:40:57.115Z,100488.72
2023-05-17T17:43:24.163Z,100441.88
2023-05-17T17:45:51.190Z,100504.75
2023-05-17T17:48:18.396Z,100507.50
2023-05-17T17:50:45.475Z,100503.16
2023-05-17T17:53:12.623Z,100508.50
2023-05-17T17:55:39.676Z,100472.00
2023-05-17T17:58:07.189Z,100497.38
2023-05-17T18:00:34.261Z,100482.69
2023-05-17T18:03:01.730Z,100510.66
2023-05-17T18:05:28.943Z,100508.09
2023-05-17T18:07:56.094Z,100510.81
2023-05-17T18:10:23.251Z,100511.78
2023-05-17T18:12:51.738Z,100516.19
2023-05-17T18:15:19.199Z,100510.06
2023-05-17T18:17:46.320Z,100508.41
2023-05-17T18:20:13.437Z,100509.34
2023-05-17T18:22:40.509Z,100501.59
2023-05-17T18:25:07.864Z,100511.28
2023-05-17T18:27:35.526Z,100488.72
2023-05-17T18:30:03.816Z,100494.84
2023-05-17T18:32:33.562Z,100508.88
2023-05-17T18:35:00.807Z,100512.47
2023-05-17T18:37:27.847Z,100512.53
2023-05-17T18:39:55.376Z,100515.25
2023-05-17T18:42:25.048Z,100511.84
2023-05-17T18:44:52.227Z,100481.31
2023-05-17T18:47:19.470Z,100502.31
2023-05-17T18:49:47.174Z,100503.22
2023-05-17T18:52:14.244Z,100511.19
2023-05-17T18:54:41.372Z,100505.03
2023-05-17T18:57:11.459Z,100502.53
2023-05-17T18:59:38.690Z,100488.63
2023-05-17T19:02:06.582Z,100493.88
2023-05-17T19:04:33.765Z,100505.31
2023-05-17T19:07:00.961Z,100507.09
2023-05-17T19:09:28.082Z,100496.69
2023-05-17T19:11:56.330Z,100515.09
2023-05-17T19:14:23.417Z,100502.03
2023-05-17T19:16:51.778Z,100516.03
2023-05-17T19:19:18.908Z,100513.44
2023-05-17T19:21:46.020Z,100503.06
2023-05-17T19:24:13.134Z,100516.16
2023-05-17T19:26:40.436Z,100519.75
2023-05-17T19:29:07.646Z,100502.34
2023-05-17T19:31:34.775Z,100516.31
2023-05-17T19:34:02.059Z,100477.94
2023-05-17T19:36:29.113Z,100523.41
2023-05-17T19:38:56.215Z,100522.56
2023-05-17T19:41:23.510Z,100519.97
2023-05-17T19:43:50.660Z,100519.13
2023-05-17T19:46:17.694Z,100521.78
2023-05-17T19:48:44.910Z,100512.22
2023-05-17T19:51:12.095Z,100528.84
2023-05-17T19:53:51.790Z,100508.81
2023-05-17T19:56:20.111Z,100523.63
2023-05-17T19:58:47.261Z,100528.78
2023-05-17T20:01:14.420Z,100507.84
2023-05-17T20:03:41.737Z,100488.72
2023-05-17T20:06:14.464Z,100511.47
2023-05-17T20:08:42.086Z,100481.91
2023-05-17T20:11:09.410Z,100509.88
2023-05-17T20:13:40.609Z,100519.53
2023-05-17T20:16:12.793Z,100518.66
2023-05-17T20:18:44.270Z,100513.31
2023-05-17T20:21:15.407Z,100523.81
2023-05-17T20:23:42.699Z,100522.09
2023-05-17T20:26:16.416Z,100512.53
2023-05-17T20:28:44.780Z,100522.16
2023-05-17T20:31:12.244Z,100522.16
2023-05-17T20:33:39.279Z,100468.94
2023-05-17T20:36:06.494Z,100523.94
2023-05-17T20:38:33.657Z,100525.72
2023-05-17T20:41:00.850Z,100530.13
2023-05-17T20:43:29.120Z,100526.66
2023-05-17T20:45:56.676Z,100517.94
2023-05-17T20:48:24.043Z,100479.56
2023-05-17T20:50:51.405Z,100522.38
2023-05-17T20:53:18.613Z,100502.28
2023-05-17T20:55:45.829Z,100516.34
2023-05-17T20:58:13.053Z,100503.22
2023-05-17T21:00:40.253Z,100518.13
2023-05-17T21:03:09.508Z,100528.63
2023-05-17T21:05:38.651Z,100526.88
2023-05-17T21:08:07.516Z,100524.25
2023-05-17T21:10:36.252Z,100531.28
2023-05-17T21:13:03.589Z,100528.69
2023-05-17T21:15:30.991Z,100526.97
2023-05-17T21:17:58.354Z,100523.47
2023-05-17T21:20:25.642Z,100530.47
2023-05-17T21:22:52.955Z,100534.00
2023-05-17T21:25:20.011Z,100517.38
2023-05-17T21:27:47.652Z,100527.03
2023-05-17T21:30:15.094Z,100520.91
2023-05-17T21:32:42.365Z,100528.78
2023-05-17T21:35:09.919Z,100527.94
2023-05-17T21:37:40.129Z,100537.59
2023-05-17T21:40:08.422Z,100489.53
2023-05-17T21:42:36.156Z,100530.63
2023-05-17T21:45:03.444Z,100524.50
2023-05-17T21:47:32.308Z,100528.03
2023-05-17T21:49:59.742Z,100524.53
2023-05-17T21:52:26.877Z,100521.91
2023-05-17T21:54:53.909Z,100527.19
2023-05-17T21:57:21.348Z,100514.94
2023-05-17T21:59:49.577Z,100520.22
2023-05-17T22:02:16.974Z,100511.47
2023-05-17T22:04:44.268Z,100508.00
2023-05-17T22:07:11.855Z,100516.75
2023-05-17T22:09:38.932Z,100525.53
2023-05-17T22:12:08.569Z,100523.81
2023-05-17T22:14:36.573Z,100522.91
2023-05-17T22:17:08.594Z,100494.94
2023-05-17T22:19:40.993Z,100527.28
2023-05-17T22:22:09.538Z,100529.06
2023-05-17T22:24:37.126Z,100516.84
2023-05-17T22:27:04.445Z,100503.72
2023-05-17T22:29:31.715Z,100527.31
2023-05-17T22:31:58.905Z,100524.69
2023-05-17T22:34:25.996Z,100523.84
2023-05-17T22:36:53.023Z,100523.81
2023-05-17T22:39:20.055Z,100526.47
2023-05-17T22:41:47.131Z,100524.72
2023-05-17T22:44:14.211Z,100516.88
2023-05-17T22:46:42.283Z,100525.59
2023-05-17T22:49:09.874Z,100534.34
2023-05-17T22:51:37.018Z,100522.09
2023-05-17T22:54:04.220Z,100523.00
2023-05-17T22:56:31.515Z,100509.00
2023-05-17T22:58:59.149Z,100519.50
2023-05-17T23:01:26.367Z,100491.50
2023-05-17T23:03:53.709Z,100519.50
2023-05-17T23:06:22.278Z,100461.81
2023-05-17T23:08:49.909Z,100525.59
2023-05-17T23:11:18.147Z,100535.22
2023-05-17T23:13:45.241Z,100506.38
2023-05-17T23:16:14.223Z,100524.72
2023-05-17T23:18:41.505Z,100528.22
2023-05-17T23:21:09.625Z,100528.22
2023-05-17T23:23:38.153Z,100522.97
2023-05-17T23:26:06.111Z,100511.59
2023-05-17T23:28:33.362Z,100521.22
2023-05-17T23:31:02.251Z,100512.44
2023-05-17T23:33:32.307Z,100530.81
2023-05-17T23:35:59.325Z,100528.22
2023-05-17T23:38:26.669Z,100522.91
2023-05-17T23:40:54.528Z,100530.81
2023-05-17T23:43:21.607Z,100536.91
2023-05-17T23:45:48.832Z,100536.91
2023-05-17T23:48:16.306Z,100537.78
2023-05-17T23:50:43.402Z,100485.25
2023-05-17T23:53:10.608Z,100540.38
2023-05-17T23:55:38.716Z,100537.72
2023-05-17T23:58:06.079Z,100546.44
